createdAt,value
2018-07-23T00:02:25.673Z,6.67
2018-07-23T00:05:23.402Z,7.83
2018-07-23T00:08:21.498Z,7.20
2018-07-23T00:11:19.407Z,6.90
2018-07-23T00:14:17.551Z,7.40
2018-07-23T00:17:15.614Z,7.70
2018-07-23T00:20:12.799Z,7.90
2018-07-23T00:23:10.073Z,8.03
2018-07-23T00:26:07.445Z,7.57
2018-07-23T00:29:05.553Z,7.60
2018-07-23T00:32:02.637Z,7.53
2018-07-23T00:35:00.926Z,7.70
2018-07-23T00:37:58.603Z,7.43
2018-07-23T00:40:56.745Z,8.27
2018-07-23T00:43:54.647Z,7.67
2018-07-23T00:46:52.627Z,8.47
2018-07-23T00:49:50.451Z,7.57
2018-07-23T00:52:48.510Z,7.70
2018-07-23T00:55:45.730Z,7.37
2018-07-23T00:58:43.879Z,8.13
2018-07-23T01:01:41.821Z,9.07
2018-07-23T01:04:39.727Z,8.37
2018-07-23T01:07:37.508Z,8.10
2018-07-23T01:10:35.449Z,7.73
2018-07-23T01:13:33.466Z,7.47
2018-07-23T01:16:31.330Z,7.67
2018-07-23T01:19:29.374Z,7.53
2018-07-23T01:22:27.492Z,7.47
2018-07-23T01:25:25.406Z,7.97
2018-07-23T01:28:23.725Z,7.83
2018-07-23T01:31:21.682Z,8.07
2018-07-23T01:34:18.846Z,7.97
2018-07-23T01:37:16.966Z,9.17
2018-07-23T01:40:15.027Z,9.33
2018-07-23T01:43:13.127Z,9.20
2018-07-23T01:46:10.998Z,7.77
2018-07-23T01:49:08.923Z,8.50
2018-07-23T01:52:05.990Z,9.80
2018-07-23T01:55:03.557Z,10.50
2018-07-23T01:58:01.265Z,8.90
2018-07-23T02:00:58.686Z,11.20
2018-07-23T02:03:56.733Z,8.37
2018-07-23T02:06:54.007Z,9.63
2018-07-23T02:09:51.260Z,9.33
2018-07-23T02:12:48.579Z,8.93
2018-07-23T02:15:46.626Z,8.43
2018-07-23T02:18:43.998Z,9.57
2018-07-23T02:21:43.164Z,8.60
2018-07-23T02:24:41.270Z,9.10
2018-07-23T02:27:39.226Z,9.57
2018-07-23T02:30:37.468Z,10.47
2018-07-23T02:33:35.371Z,8.77
2018-07-23T02:36:33.408Z,10.60
2018-07-23T02:39:31.480Z,9.27
2018-07-23T02:42:29.718Z,9.43
2018-07-23T02:45:26.981Z,8.90
2018-07-23T02:48:24.909Z,9.13
2018-07-23T02:51:22.991Z,12.77
2018-07-23T02:54:21.010Z,11.50
2018-07-23T02:57:19.181Z,9.83
2018-07-23T03:00:17.044Z,8.80
2018-07-23T03:03:14.925Z,10.27
2018-07-23T03:06:13.095Z,11.43
2018-07-23T03:09:10.374Z,9.77
2018-07-23T03:12:08.510Z,9.40
2018-07-23T03:15:06.490Z,7.60
2018-07-23T03:18:04.493Z,10.13
2018-07-23T03:21:02.768Z,10.17
2018-07-23T03:24:00.314Z,10.03
2018-07-23T03:26:58.350Z,10.73
2018-07-23T03:29:56.379Z,8.30
2018-07-23T03:32:53.442Z,9.43
2018-07-23T03:35:51.387Z,9.27
2018-07-23T03:38:49.042Z,10.03
2018-07-23T03:41:47.018Z,8.23
2018-07-23T03:44:44.222Z,9.53
2018-07-23T03:47:42.263Z,9.70
2018-07-23T03:50:40.154Z,10.87
2018-07-23T03:53:38.101Z,9.07
2018-07-23T03:56:35.893Z,8.40
2018-07-23T03:59:34.067Z,9.40
2018-07-23T04:02:32.009Z,9.83
2018-07-23T04:05:30.023Z,9.10
2018-07-23T04:08:27.274Z,8.57
2018-07-23T04:11:25.130Z,9.27
2018-07-23T04:14:23.131Z,8.40
2018-07-23T04:17:21.363Z,8.30
2018-07-23T04:20:19.265Z,10.70
2018-07-23T04:23:17.058Z,9.13
2018-07-23T04:26:15.194Z,8.20
2018-07-23T04:29:13.313Z,9.97
2018-07-23T04:32:11.199Z,9.70
2018-07-23T04:35:09.282Z,9.87
2018-07-23T04:38:07.126Z,7.90
2018-07-23T04:41:05.210Z,8.17
2018-07-23T04:44:03.328Z,9.47
2018-07-23T04:47:01.234Z,11.60
2018-07-23T04:49:59.006Z,8.07
2018-07-23T04:52:57.191Z,8.47
2018-07-23T04:55:54.390Z,8.30
2018-07-23T04:58:52.548Z,9.57
2018-07-23T05:01:50.429Z,9.50
2018-07-23T05:04:47.413Z,8.60
2018-07-23T05:07:45.556Z,11.67
2018-07-23T05:10:43.719Z,7.50
2018-07-23T05:13:41.975Z,9.40
2018-07-23T05:16:40.235Z,9.53
2018-07-23T05:19:37.360Z,9.77
2018-07-23T05:22:35.395Z,8.53
2018-07-23T05:25:32.714Z,8.87
2018-07-23T05:28:30.526Z,11.87
2018-07-23T05:31:28.682Z,10.77
2018-07-23T05:34:26.014Z,13.33
2018-07-23T05:37:24.130Z,11.77
2018-07-23T05:40:22.111Z,10.33
2018-07-23T05:43:19.126Z,11.83
2018-07-23T05:46:17.162Z,13.83
2018-07-23T05:49:15.143Z,14.90
2018-07-23T05:52:13.043Z,14.93
2018-07-23T05:55:11.062Z,15.03
2018-07-23T05:58:10.143Z,15.83
2018-07-23T06:01:08.242Z,16.77
2018-07-23T06:04:06.205Z,16.07
2018-07-23T06:07:04.050Z,14.30
2018-07-23T06:10:01.908Z,14.50
2018-07-23T06:12:59.984Z,14.93
2018-07-23T06:15:58.041Z,14.73
2018-07-23T06:18:55.502Z,13.95
2018-07-23T06:21:53.543Z,14.03
2018-07-23T06:24:51.582Z,14.33
2018-07-23T06:47:25.086Z,14.27
2018-07-23T06:50:22.647Z,16.40
2018-07-23T06:53:20.713Z,15.97
2018-07-23T06:56:18.812Z,15.00
2018-07-23T06:59:16.714Z,16.03
2018-07-23T07:02:13.846Z,16.37
2018-07-23T07:05:11.946Z,15.37
2018-07-23T07:08:09.338Z,14.15
2018-07-23T07:11:07.199Z,13.83
2018-07-23T07:14:04.454Z,13.58
2018-07-23T07:17:02.452Z,15.53
2018-07-23T07:20:00.320Z,13.32
2018-07-23T07:22:58.418Z,13.32
2018-07-23T07:25:56.344Z,13.22
2018-07-23T07:28:54.488Z,12.47
2018-07-23T07:31:52.318Z,13.05
2018-07-23T07:34:50.258Z,12.80
2018-07-23T07:37:48.454Z,13.55
2018-07-23T07:40:47.414Z,12.93
2018-07-23T07:43:44.933Z,13.30
2018-07-23T07:46:43.238Z,12.75
2018-07-23T07:49:40.566Z,12.95
2018-07-23T07:52:38.873Z,12.82
2018-07-23T07:55:36.804Z,13.62
2018-07-23T07:58:34.295Z,11.65
2018-07-23T08:01:31.450Z,11.95
2018-07-23T08:04:29.496Z,10.82
2018-07-23T08:07:27.489Z,11.70
2018-07-23T08:10:25.558Z,11.70
2018-07-23T08:13:23.344Z,10.28
2018-07-23T08:16:20.702Z,12.28
2018-07-23T08:19:18.795Z,9.90
2018-07-23T08:22:16.743Z,9.50
2018-07-23T08:25:14.728Z,10.28
2018-07-23T08:28:12.710Z,12.13
2018-07-23T08:31:10.871Z,11.88
2018-07-23T08:34:08.854Z,9.30
2018-07-23T08:37:06.961Z,9.03
2018-07-23T08:40:05.119Z,7.83
2018-07-23T08:43:03.127Z,8.48
2018-07-23T08:46:00.464Z,11.35
2018-07-23T08:48:58.432Z,9.85
2018-07-23T08:51:56.387Z,11.70
2018-07-23T08:54:54.591Z,10.00
2018-07-23T08:57:52.535Z,8.88
2018-07-23T09:00:50.618Z,7.10
2018-07-23T09:03:48.522Z,7.08
2018-07-23T09:06:46.670Z,6.80
2018-07-23T09:09:44.641Z,7.72
2018-07-23T09:12:42.527Z,9.88
2018-07-23T09:15:40.484Z,9.43
2018-07-23T09:18:38.415Z,8.30
2018-07-23T09:21:36.451Z,7.17
2018-07-23T09:24:34.428Z,8.43
2018-07-23T09:27:32.286Z,7.72
2018-07-23T09:30:36.146Z,6.42
2018-07-23T09:33:34.101Z,8.45
2018-07-23T09:36:31.730Z,8.65
2018-07-23T09:39:30.660Z,9.08
2018-07-23T09:42:28.608Z,7.28
2018-07-23T09:45:26.423Z,9.38
2018-07-23T09:48:24.319Z,8.43
2018-07-23T09:51:22.221Z,6.25
2018-07-23T09:54:20.107Z,6.28
2018-07-23T09:57:17.379Z,7.72
2018-07-23T10:00:15.463Z,5.90
2018-07-23T10:03:12.810Z,5.30
2018-07-23T10:06:10.550Z,5.65
2018-07-23T10:09:08.334Z,5.92
2018-07-23T10:12:06.472Z,4.80
2018-07-23T10:15:03.726Z,5.58
2018-07-23T10:18:01.802Z,4.70
2018-07-23T10:20:59.003Z,6.12
2018-07-23T10:23:56.287Z,7.80
2018-07-23T10:26:54.132Z,5.33
2018-07-23T10:29:52.062Z,5.35
2018-07-23T10:32:50.153Z,6.37
2018-07-23T10:35:48.013Z,5.58
2018-07-23T10:38:45.239Z,5.72
2018-07-23T10:41:42.352Z,5.70
2018-07-23T10:44:40.514Z,5.45
2018-07-23T10:47:38.483Z,5.53
2018-07-23T10:50:36.491Z,5.33
2018-07-23T10:53:34.238Z,6.60
2018-07-23T10:56:32.254Z,5.67
2018-07-23T10:59:29.430Z,4.42
2018-07-23T11:02:27.480Z,5.10
2018-07-23T11:05:25.537Z,4.50
2018-07-23T11:08:22.811Z,6.97
2018-07-23T11:11:20.882Z,4.42
2018-07-23T11:14:18.959Z,4.37
2018-07-23T11:17:16.737Z,4.58
2018-07-23T11:20:14.657Z,4.85
2018-07-23T11:23:12.990Z,4.50
2018-07-23T11:26:10.162Z,7.00
2018-07-23T11:29:07.462Z,4.50
2018-07-23T11:32:05.541Z,4.42
2018-07-23T11:35:03.488Z,5.12
2018-07-23T11:38:01.506Z,4.17
2018-07-23T11:40:59.882Z,4.53
2018-07-23T11:43:57.989Z,5.80
2018-07-23T11:46:55.849Z,4.30
2018-07-23T11:49:53.793Z,4.90
2018-07-23T11:52:51.878Z,6.70
2018-07-23T11:55:49.997Z,4.60
2018-07-23T11:58:47.818Z,4.70
2018-07-23T12:01:45.947Z,4.13
2018-07-23T12:04:44.372Z,4.23
2018-07-23T12:07:41.967Z,4.90
2018-07-23T12:10:40.037Z,4.00
2018-07-23T12:13:38.091Z,5.00
2018-07-23T12:16:35.305Z,4.63
2018-07-23T12:19:33.471Z,4.17
2018-07-23T12:22:31.711Z,5.03
2018-07-23T12:25:29.627Z,4.77
2018-07-23T12:28:27.535Z,4.50
2018-07-23T12:31:25.584Z,4.07
2018-07-23T12:34:23.805Z,4.73
2018-07-23T12:37:21.752Z,4.47
2018-07-23T12:40:19.817Z,4.20
2018-07-23T12:43:17.773Z,4.63
2018-07-23T12:46:15.692Z,4.27
2018-07-23T12:49:13.814Z,4.57
2018-07-23T12:52:11.899Z,4.90
2018-07-23T12:55:08.938Z,4.83
2018-07-23T12:58:07.135Z,4.97
2018-07-23T13:01:05.179Z,4.47
2018-07-23T13:04:03.453Z,4.50
2018-07-23T13:07:01.479Z,4.90
2018-07-23T13:09:59.445Z,4.90
2018-07-23T13:12:57.349Z,4.73
2018-07-23T13:15:55.359Z,4.70
2018-07-23T13:18:53.549Z,6.67
2018-07-23T13:21:51.559Z,5.37
2018-07-23T13:24:49.576Z,7.47
2018-07-23T13:27:46.642Z,5.40
2018-07-23T13:30:43.714Z,5.53
2018-07-23T13:33:41.793Z,5.30
2018-07-23T13:36:39.722Z,5.20
2018-07-23T13:39:37.680Z,6.90
2018-07-23T13:42:35.578Z,5.70
2018-07-23T13:45:42.067Z,5.37
2018-07-23T13:48:39.878Z,5.50
2018-07-23T13:51:37.862Z,4.93
2018-07-23T13:54:35.775Z,5.43
2018-07-23T13:57:33.998Z,5.40
2018-07-23T14:00:31.864Z,5.13
2018-07-23T14:03:29.570Z,5.43
2018-07-23T14:06:27.358Z,5.67
2018-07-23T14:09:25.473Z,6.13
2018-07-23T14:12:23.225Z,6.13
2018-07-23T14:15:21.505Z,5.47
2018-07-23T14:18:19.493Z,5.57
2018-07-23T14:21:17.244Z,5.80
2018-07-23T14:24:14.845Z,6.10
2018-07-23T14:27:12.700Z,5.60
2018-07-23T14:30:10.721Z,5.57
2018-07-23T14:33:08.542Z,5.27
2018-07-23T14:36:06.614Z,6.20
2018-07-23T14:39:04.491Z,5.63
2018-07-23T14:42:02.475Z,5.83
2018-07-23T14:45:00.689Z,5.00
2018-07-23T14:47:58.726Z,6.37
2018-07-23T14:50:56.566Z,10.23
2018-07-23T14:53:54.683Z,6.13
2018-07-23T14:56:52.678Z,5.13
2018-07-23T14:59:50.635Z,5.87
2018-07-23T15:02:48.403Z,5.37
2018-07-23T15:05:46.283Z,6.60
2018-07-23T15:08:44.234Z,6.10
2018-07-23T15:11:42.423Z,5.43
2018-07-23T15:14:40.274Z,4.73
2018-07-23T15:17:38.063Z,5.30
2018-07-23T15:20:36.022Z,7.00
2018-07-23T15:23:34.206Z,5.20
2018-07-23T15:26:32.298Z,6.73
2018-07-23T15:29:30.465Z,4.77
2018-07-23T15:32:28.399Z,5.17
2018-07-23T15:35:26.214Z,5.43
2018-07-23T15:38:24.312Z,4.83
2018-07-23T15:41:22.217Z,4.40
2018-07-23T15:44:20.467Z,4.20
2018-07-23T15:47:18.594Z,6.17
2018-07-23T15:50:16.788Z,3.47
2018-07-23T15:53:14.966Z,4.47
2018-07-23T15:56:12.962Z,4.17
2018-07-23T15:59:11.229Z,4.50
2018-07-23T16:02:09.097Z,4.77
2018-07-23T16:05:06.835Z,3.80
2018-07-23T16:08:04.699Z,4.13
2018-07-23T16:11:02.567Z,3.90
2018-07-23T16:14:00.683Z,3.93
2018-07-23T16:16:58.823Z,4.37
2018-07-23T16:19:56.941Z,4.23
2018-07-23T16:22:54.667Z,4.10
2018-07-23T16:25:52.581Z,4.43
2018-07-23T16:28:50.746Z,3.80
2018-07-23T16:31:48.813Z,3.90
2018-07-23T16:34:46.718Z,3.93
2018-07-23T16:37:44.662Z,3.53
2018-07-23T16:40:42.586Z,3.87
2018-07-23T16:43:40.571Z,4.27
2018-07-23T16:46:38.763Z,3.63
2018-07-23T16:49:36.748Z,5.23
2018-07-23T16:52:34.655Z,5.77
2018-07-23T16:55:32.582Z,4.07
2018-07-23T16:58:30.379Z,4.00
2018-07-23T17:01:28.220Z,4.53
2018-07-23T17:04:26.231Z,5.23
2018-07-23T17:07:24.266Z,3.67
2018-07-23T17:10:22.359Z,3.57
2018-07-23T17:13:20.239Z,6.23
2018-07-23T17:16:18.349Z,3.80
2018-07-23T17:19:16.506Z,3.37
2018-07-23T17:22:14.492Z,4.00
2018-07-23T17:25:12.429Z,4.60
2018-07-23T17:28:10.547Z,4.53
2018-07-23T17:31:08.651Z,4.00
2018-07-23T17:34:06.567Z,4.00
2018-07-23T17:37:04.599Z,3.73
2018-07-23T17:40:02.578Z,3.90
2018-07-23T17:43:00.509Z,3.70
2018-07-23T17:45:58.483Z,4.00
2018-07-23T17:48:56.474Z,3.67
2018-07-23T17:51:54.388Z,3.60
2018-07-23T17:54:52.419Z,3.30
2018-07-23T17:57:50.303Z,3.50
2018-07-23T18:00:48.298Z,3.93
2018-07-23T18:03:46.223Z,4.50
2018-07-23T18:06:44.177Z,3.87
2018-07-23T18:09:42.458Z,5.33
2018-07-23T18:12:40.418Z,3.37
2018-07-23T18:15:38.436Z,3.40
2018-07-23T18:18:36.326Z,3.47
2018-07-23T18:21:34.320Z,3.73
2018-07-23T18:24:32.118Z,3.47
2018-07-23T18:27:29.916Z,3.50
2018-07-23T18:30:28.861Z,23.83
2018-07-23T18:33:26.042Z,9.20
2018-07-23T18:36:25.086Z,6.30
2018-07-23T18:39:24.355Z,7.33
2018-07-23T18:42:22.346Z,6.10
2018-07-23T18:45:20.427Z,6.87
2018-07-23T18:48:23.630Z,5.47
2018-07-23T18:51:21.001Z,3.93
2018-07-23T18:54:18.202Z,4.50
2018-07-23T18:57:16.349Z,3.63
2018-07-23T19:00:14.079Z,5.23
2018-07-23T19:03:12.056Z,3.73
2018-07-23T19:06:10.270Z,6.10
2018-07-23T19:09:08.127Z,4.97
2018-07-23T19:12:06.140Z,4.73
2018-07-23T19:15:04.267Z,5.13
2018-07-23T19:18:02.232Z,3.40
2018-07-23T19:21:00.380Z,5.00
2018-07-23T19:23:58.401Z,4.20
2018-07-23T19:26:56.504Z,6.17
2018-07-23T19:29:53.834Z,5.20
2018-07-23T19:32:51.874Z,6.60
2018-07-23T19:35:50.174Z,6.07
2018-07-23T19:38:48.174Z,3.97
2018-07-23T19:41:46.256Z,4.90
2018-07-23T19:44:44.497Z,5.67
2018-07-23T19:47:42.731Z,5.70
2018-07-23T19:50:40.551Z,4.50
2018-07-23T19:53:38.414Z,7.57
2018-07-23T19:56:35.663Z,6.20
2018-07-23T19:59:33.577Z,4.93
2018-07-23T20:02:31.429Z,5.13
2018-07-23T20:05:29.473Z,5.00
2018-07-23T20:08:26.785Z,3.67
2018-07-23T20:11:24.842Z,4.70
2018-07-23T20:14:22.802Z,9.47
2018-07-23T20:17:20.936Z,9.90
2018-07-23T20:20:20.124Z,5.03
2018-07-23T20:23:18.232Z,6.13
2018-07-23T20:26:16.372Z,4.90
2018-07-23T20:29:14.099Z,5.67
2018-07-23T20:32:12.306Z,4.80
2018-07-23T20:35:10.232Z,5.77
2018-07-23T20:38:08.182Z,5.67
2018-07-23T20:41:06.030Z,4.50
2018-07-23T20:44:03.993Z,5.20
2018-07-23T20:47:02.098Z,5.00
2018-07-23T20:50:00.096Z,5.60
2018-07-23T20:52:58.218Z,5.33
2018-07-23T20:55:56.451Z,5.97
2018-07-23T20:58:54.333Z,6.07
2018-07-23T21:01:52.157Z,4.83
2018-07-23T21:04:50.218Z,5.30
2018-07-23T21:07:48.427Z,4.63
2018-07-23T21:10:46.497Z,5.30
2018-07-23T21:13:44.563Z,5.37
2018-07-23T21:16:42.518Z,4.57
2018-07-23T21:19:39.759Z,5.47
2018-07-23T21:22:37.750Z,5.50
2018-07-23T21:25:35.745Z,5.33
2018-07-23T21:28:32.694Z,4.40
2018-07-23T21:31:30.581Z,5.13
2018-07-23T21:34:28.634Z,6.40
2018-07-23T21:37:26.590Z,4.60
2018-07-23T21:40:24.623Z,4.87
2018-07-23T21:43:22.822Z,4.97
2018-07-23T21:46:20.790Z,4.93
2018-07-23T21:49:18.096Z,4.83
2018-07-23T21:52:16.267Z,5.23
2018-07-23T21:55:14.174Z,5.80
2018-07-23T21:58:12.406Z,5.10
2018-07-23T22:01:10.417Z,4.77
2018-07-23T22:04:08.550Z,6.47
2018-07-23T22:07:06.526Z,5.30
2018-07-23T22:10:04.538Z,5.37
2018-07-23T22:13:02.296Z,6.07
2018-07-23T22:15:59.354Z,6.47
2018-07-23T22:18:57.338Z,5.27
2018-07-23T22:21:55.414Z,5.27
2018-07-23T22:24:53.209Z,5.17
2018-07-23T22:27:50.331Z,5.57
2018-07-23T22:30:48.257Z,5.10
2018-07-23T22:33:45.958Z,4.57
2018-07-23T22:36:44.038Z,6.93
2018-07-23T22:39:42.019Z,6.80
2018-07-23T22:42:40.889Z,5.90
2018-07-23T22:45:38.915Z,5.30
2018-07-23T22:48:36.914Z,5.40
2018-07-23T22:51:34.858Z,5.80
2018-07-23T22:54:32.822Z,5.43
2018-07-23T22:57:30.935Z,6.27
2018-07-23T23:00:28.030Z,5.90
2018-07-23T23:03:25.325Z,5.40
2018-07-23T23:06:23.305Z,5.43
2018-07-23T23:09:22.362Z,6.07
2018-07-23T23:12:19.942Z,5.30
2018-07-23T23:15:18.038Z,6.20
2018-07-23T23:18:15.578Z,5.13
2018-07-23T23:21:12.743Z,5.60
2018-07-23T23:24:10.813Z,6.13
2018-07-23T23:27:08.070Z,7.43
2018-07-23T23:30:06.182Z,5.13
2018-07-23T23:33:03.314Z,5.57
2018-07-23T23:36:01.330Z,5.27
2018-07-23T23:38:59.323Z,5.97
2018-07-23T23:41:57.431Z,4.90
2018-07-23T23:44:54.671Z,6.53
2018-07-23T23:47:51.994Z,5.10
2018-07-23T23:50:49.281Z,5.77
2018-07-23T23:53:47.321Z,6.87
2018-07-23T23:56:44.910Z,8.70
2018-07-23T23:59:42.878Z,6.07
